Time;durP1;ratioP1;P1;durP2;ratioP2;P2;SDS_P1;SDS_P2;PMS_P1;PMS_P2;Temp;Humidity;BMP_temperature;BMP_pressure;BME280_temperature;BME280_humidity;BME280_pressure;Samples;Min_cycle;Max_cycle;Signal;HPM_P1;HPM_P2
2021/12/14 00:00:00;;;;;;;22.40;13.60;;;8.70;99.90;;;;;;4937189;29;20043;-74
2021/12/14 00:02:28;;;;;;;18.73;13.10;;;8.60;99.90;;;;;;4950873;29;20102;-74
2021/12/14 00:04:56;;;;;;;19.98;13.15;;;8.50;99.90;;;;;;4948383;29;20115;-74
2021/12/14 00:07:22;;;;;;;25.35;14.23;;;8.70;99.90;;;;;;4953799;28;20511;-74
2021/12/14 00:09:49;;;;;;;23.63;14.52;;;8.60;99.90;;;;;;4951828;28;20042;-74
2021/12/14 00:17:27;;;;;;;24.15;14.15;;;8.70;99.90;;;;;;4937552;29;20058;-72
2021/12/14 00:19:55;;;;;;;23.45;15.00;;;8.70;99.90;;;;;;4938958;28;20511;-71
2021/12/14 00:22:37;;;;;;;25.42;15.43;;;8.30;99.90;;;;;;4936291;29;20043;-71
2021/12/14 00:25:04;;;;;;;24.25;14.45;;;8.50;99.90;;;;;;4937353;28;20043;-71
2021/12/14 00:27:31;;;;;;;23.45;14.02;;;;;;;;;;4952473;28;20046;-71
2021/12/14 00:30:00;;;;;;;26.25;14.00;;;9.60;99.90;;;;;;4954694;28;20399;-71
2021/12/14 00:32:31;;;;;;;23.13;14.38;;;8.60;99.90;;;;;;4953235;28;20479;-71
2021/12/14 00:34:59;;;;;;;25.02;14.38;;;;;;;;;;4950756;28;20499;-71
2021/12/14 00:37:25;;;;;;;23.88;14.75;;;;;;;;;;4953436;28;20082;-71
2021/12/14 00:39:55;;;;;;;23.83;15.15;;;7.50;99.90;;;;;;4943340;28;20059;-71
2021/12/14 00:42:22;;;;;;;24.35;14.52;;;;;;;;;;4935935;29;20175;-71
2021/12/14 00:44:48;;;;;;;25.52;14.30;;;;;;;;;;4938163;29;20519;-72
2021/12/14 00:47:14;;;;;;;24.08;14.38;;;;;;;;;;4934322;29;20046;-71
2021/12/14 00:49:40;;;;;;;23.42;14.73;;;;;;;;;;4936016;29;20043;-71
2021/12/14 00:52:07;;;;;;;24.50;15.38;;;7.70;99.90;;;;;;4949760;28;20045;-71
2021/12/14 00:54:34;;;;;;;27.20;15.00;;;8.60;99.90;;;;;;4944214;28;20102;-71
2021/12/14 00:57:00;;;;;;;25.00;14.82;;;9.20;99.90;;;;;;4948839;28;20071;-72
2021/12/14 00:59:26;;;;;;;24.95;14.88;;;8.50;99.90;;;;;;4953959;28;20035;-71
2021/12/14 01:02:10;;;;;;;29.27;15.43;;;8.50;99.90;;;;;;4935742;29;20036;-71
2021/12/14 01:04:53;;;;;;;22.08;14.13;;;8.30;99.90;;;;;;4947665;28;20130;-71
2021/12/14 01:07:23;;;;;;;23.35;14.80;;;8.30;99.90;;;;;;4938065;29;20036;-71
2021/12/14 01:09:53;;;;;;;28.35;16.08;;;8.50;99.90;;;;;;4952594;28;20054;-71
2021/12/14 01:12:34;;;;;;;30.48;16.52;;;7.70;99.90;;;;;;4947471;28;20066;-71
2021/12/14 01:15:31;;;;;;;23.30;15.85;;;8.50;99.90;;;;;;4936526;29;20070;-72
2021/12/14 01:18:29;;;;;;;28.15;16.85;;;8.50;99.90;;;;;;4937066;29;20039;-71
2021/12/14 01:21:01;;;;;;;26.73;16.52;;;8.50;99.90;;;;;;4952537;28;20053;-71
2021/12/14 01:23:32;;;;;;;;;;;8.60;99.90;;;;;;4951396;28;20113;-71
2021/12/14 01:26:05;;;;;;;28.20;16.05;;;8.70;99.90;;;;;;4922077;29;20044;-71
2021/12/14 01:28:32;;;;;;;31.80;16.70;;;9.30;99.90;;;;;;4952280;28;20086;-72
2021/12/14 01:31:34;;;;;;;29.02;17.65;;;8.30;99.90;;;;;;4937446;28;20055;-72
2021/12/14 01:34:08;;;;;;;30.05;17.48;;;9.10;99.90;;;;;;4937078;28;20047;-71
2021/12/14 01:39:23;;;;;;;28.33;16.73;;;8.60;99.90;;;;;;4946764;28;20099;-71
2021/12/14 01:42:05;;;;;;;27.85;17.45;;;;;;;;;;4946800;29;20061;-71
2021/12/14 01:44:39;;;;;;;30.50;18.17;;;8.50;99.90;;;;;;4950147;28;20118;-71
2021/12/14 01:47:10;;;;;;;28.27;17.45;;;7.90;99.90;;;;;;4935145;29;20048;-71
2021/12/14 01:49:36;;;;;;;32.47;18.23;;;;;;;;;;4935772;29;20131;-71
2021/12/14 01:52:07;;;;;;;32.60;17.05;;;8.50;99.90;;;;;;4941031;29;20046;-71
2021/12/14 01:54:40;;;;;;;30.38;17.77;;;8.50;99.90;;;;;;4935875;29;20046;-71
2021/12/14 01:57:13;;;;;;;33.40;18.25;;;9.30;99.90;;;;;;4934968;29;20123;-71
2021/12/14 01:59:43;;;;;;;31.17;18.30;;;8.40;99.90;;;;;;4936488;29;20035;-71
2021/12/14 02:04:44;;;;;;;30.60;18.27;;;8.50;99.90;;;;;;4947431;28;20130;-71
2021/12/14 02:07:12;;;;;;;28.80;18.77;;;8.50;99.90;;;;;;4934704;29;20040;-71
2021/12/14 02:09:39;;;;;;;30.05;18.13;;;8.40;99.90;;;;;;4935751;29;20071;-71
2021/12/14 02:12:12;;;;;;;28.73;17.73;;;8.20;99.90;;;;;;4934672;29;20055;-71
2021/12/14 02:14:38;;;;;;;28.58;18.02;;;8.30;99.90;;;;;;4935798;29;20046;-71
2021/12/14 02:17:08;;;;;;;33.50;18.52;;;7.50;99.90;;;;;;4934683;29;20046;-71
2021/12/14 02:19:36;;;;;;;32.95;18.08;;;8.30;99.90;;;;;;4950229;28;20047;-71
2021/12/14 02:22:04;;;;;;;33.25;19.35;;;8.70;99.90;;;;;;4936744;29;20043;-71
2021/12/14 02:24:30;;;;;;;31.55;19.08;;;;;;;;;;4950849;28;20094;-71
2021/12/14 02:26:57;;;;;;;33.88;17.92;;;;;;;;;;4951870;28;20036;-71
2021/12/14 02:29:26;;;;;;;29.00;17.40;;;7.50;99.90;;;;;;4936040;29;20047;-71
2021/12/14 02:31:59;;;;;;;36.67;18.80;;;8.50;99.90;;;;;;4934625;29;20095;-71
2021/12/14 02:34:25;;;;;;;33.88;19.13;;;;;;;;;;4941995;28;20436;-71
2021/12/14 02:36:52;;;;;;;30.42;18.98;;;;;;;;;;4951855;28;20035;-71
2021/12/14 02:42:07;;;;;;;32.63;18.55;;;8.40;99.90;;;;;;4950664;29;20057;-71
2021/12/14 02:44:33;;;;;;;32.50;19.10;;;8.40;99.90;;;;;;4952437;28;20048;-71
2021/12/14 02:47:07;;;;;;;33.55;19.20;;;7.80;99.90;;;;;;4920727;29;20456;-71
2021/12/14 02:49:35;;;;;;;36.70;19.42;;;8.40;99.90;;;;;;4938273;29;20083;-71
2021/12/14 02:52:25;;;;;;;39.28;19.73;;;8.20;99.90;;;;;;4939060;29;20469;-71
2021/12/14 02:54:55;;;;;;;35.35;19.90;;;9.20;99.90;;;;;;4952470;29;20058;-72
2021/12/14 02:57:25;;;;;;;32.47;19.60;;;8.40;99.90;;;;;;4937984;28;20039;-71
2021/12/14 02:59:52;;;;;;;36.28;20.27;;;7.60;99.90;;;;;;4953062;28;20088;-71
2021/12/14 03:02:26;;;;;;;35.17;19.85;;;9.20;99.90;;;;;;4948053;28;20051;-71
2021/12/14 03:04:56;;;;;;;34.03;19.35;;;8.50;99.90;;;;;;4937090;29;20044;-71
2021/12/14 03:07:26;;;;;;;37.92;20.25;;;8.50;99.90;;;;;;4937768;29;20485;-71
2021/12/14 03:10:00;;;;;;;35.00;19.75;;;8.40;99.90;;;;;;4937883;29;20062;-71
2021/12/14 03:12:30;;;;;;;37.55;19.85;;;7.90;99.90;;;;;;4953134;28;20039;-71
2021/12/14 03:15:03;;;;;;;35.90;20.50;;;8.50;99.90;;;;;;4945288;28;20051;-71
2021/12/14 03:17:29;;;;;;;38.28;20.77;;;8.90;99.90;;;;;;4937494;29;20039;-71
2021/12/14 03:20:03;;;;;;;38.80;21.13;;;9.00;99.90;;;;;;4937310;29;20138;-72
2021/12/14 03:22:51;;;;;;;36.10;21.48;;;8.90;99.90;;;;;;4952161;28;20048;-71
2021/12/14 03:25:19;;;;;;;36.22;20.83;;;8.50;99.90;;;;;;4924284;28;20052;-71
2021/12/14 03:27:49;;;;;;;37.97;21.88;;;9.10;99.90;;;;;;4937317;29;20047;-71
2021/12/14 03:30:26;;;;;;;42.72;23.10;;;9.30;99.90;;;;;;4938832;29;20054;-71
2021/12/14 03:32:55;;;;;;;36.60;21.63;;;8.50;99.90;;;;;;4953184;28;20051;-71
2021/12/14 03:35:33;;;;;;;36.75;21.38;;;8.20;99.90;;;;;;4944199;28;20051;-71
2021/12/14 03:38:25;;;;;;;40.05;21.60;;;8.50;99.90;;;;;;4954524;28;20137;-71
2021/12/14 03:41:16;;;;;;;39.80;22.02;;;8.40;99.90;;;;;;4921382;29;20070;-71
2021/12/14 03:43:54;;;;;;;44.40;22.85;;;8.60;99.90;;;;;;4952476;29;20548;-71
2021/12/14 03:46:20;;;;;;;40.67;22.50;;;;;;;;;;4944084;29;20098;-71
2021/12/14 03:48:46;;;;;;;40.80;22.25;;;;;;;;;;4947033;28;20048;-71
2021/12/14 03:51:12;;;;;;;41.88;23.15;;;;;;;;;;4937298;29;20039;-71
2021/12/14 03:53:39;;;;;;;47.38;24.17;;;;;;;;;;4947920;29;20035;-71
2021/12/14 03:56:07;;;;;;;40.15;23.25;;;8.20;99.90;;;;;;4954101;29;20035;-71
2021/12/14 03:58:37;;;;;;;45.55;24.42;;;8.40;99.90;;;;;;4954021;28;20055;-71
2021/12/14 04:01:13;;;;;;;44.72;23.95;;;8.20;99.90;;;;;;4953355;28;20403;-71
2021/12/14 04:03:41;;;;;;;46.67;24.55;;;8.20;99.90;;;;;;4937945;29;20040;-71
2021/12/14 04:06:07;;;;;;;42.58;24.17;;;;;;;;;;4936849;29;20035;-73
2021/12/14 04:08:33;;;;;;;46.83;24.45;;;8.40;99.90;;;;;;4936621;29;20043;-73
2021/12/14 04:11:02;;;;;;;50.33;25.60;;;8.20;99.90;;;;;;4921785;28;20127;-73
2021/12/14 04:13:31;;;;;;;43.08;24.08;;;8.30;99.90;;;;;;4945243;28;20531;-74
2021/12/14 04:15:57;;;;;;;44.60;25.02;;;9.00;99.90;;;;;;4968315;28;20132;-73
2021/12/14 04:18:26;;;;;;;46.83;24.00;;;8.20;99.90;;;;;;4953534;29;20122;-73
2021/12/14 04:20:55;;;;;;;43.65;24.65;;;;;;;;;;4952685;28;20582;-73
2021/12/14 04:23:24;;;;;;;49.00;25.42;;;8.20;99.90;;;;;;4943846;29;20527;-74
2021/12/14 04:25:51;;;;;;;47.90;26.25;;;8.20;99.90;;;;;;4952385;29;20526;-73
2021/12/14 04:28:21;;;;;;;49.45;25.10;;;8.30;99.90;;;;;;4953500;28;20095;-73
2021/12/14 04:30:48;;;;;;;48.63;25.23;;;8.10;99.90;;;;;;4953359;28;20050;-74
2021/12/14 04:33:16;;;;;;;47.78;24.80;;;;;;;;;;4938209;28;20075;-74
2021/12/14 04:35:46;;;;;;;44.17;23.92;;;8.10;99.90;;;;;;4953316;28;20106;-74
2021/12/14 04:38:24;;;;;;;42.72;23.85;;;;;;;;;;4953402;28;20039;-74
2021/12/14 04:52:22;;;;;;;42.63;24.35;;;8.20;99.90;;;;;;4937880;29;20062;-73
2021/12/14 04:55:00;;;;;;;47.15;24.27;;;8.20;99.90;;;;;;4939082;29;20082;-73
2021/12/14 04:57:34;;;;;;;44.63;24.48;;;8.80;99.90;;;;;;4942621;29;20455;-73
2021/12/14 05:00:26;;;;;;;53.83;25.42;;;8.20;99.90;;;;;;4952833;28;20492;-73
2021/12/14 05:02:54;;;;;;;53.35;25.98;;;8.10;99.90;;;;;;4946933;28;20119;-73
2021/12/14 05:05:38;;;;;;;48.35;24.65;;;8.30;99.90;;;;;;4948487;28;20035;-73
2021/12/14 05:10:46;;;;;;;47.05;26.08;;;7.20;99.90;;;;;;4951719;28;20047;-73
2021/12/14 05:13:12;;;;;;;48.97;26.02;;;8.40;99.90;;;;;;4937416;29;20547;-73
2021/12/14 05:15:41;;;;;;;46.28;25.30;;;8.20;99.90;;;;;;4950472;28;20043;-73
2021/12/14 05:18:14;;;;;;;49.80;26.75;;;8.50;99.90;;;;;;4935272;29;20052;-73
2021/12/14 05:20:45;;;;;;;50.47;25.90;;;8.20;99.90;;;;;;4936163;29;20078;-73
2021/12/14 05:23:18;;;;;;;50.20;25.55;;;;;;;;;;4936581;29;20052;-73
2021/12/14 05:25:44;;;;;;;48.42;26.40;;;;;;;;;;4935550;29;20507;-73
2021/12/14 05:28:15;;;;;;;49.80;27.27;;;8.90;99.90;;;;;;4944668;28;20130;-73
2021/12/14 05:30:44;;;;;;;47.50;26.92;;;8.20;99.90;;;;;;4920981;29;20369;-73
2021/12/14 05:33:15;;;;;;;54.88;25.92;;;8.30;99.90;;;;;;4951222;28;20079;-73
2021/12/14 05:35:45;;;;;;;47.05;25.30;;;8.80;99.90;;;;;;4937015;29;20500;-73
2021/12/14 05:38:18;;;;;;;47.33;26.52;;;9.00;99.90;;;;;;4931660;29;20044;-73
2021/12/14 05:43:22;;;;;;;52.42;28.30;;;8.20;99.90;;;;;;4946368;28;20516;-73
2021/12/14 05:45:53;;;;;;;52.30;26.63;;;8.20;99.90;;;;;;4941172;28;20043;-73
2021/12/14 05:48:23;;;;;;;50.50;26.70;;;8.40;99.90;;;;;;4936676;29;20047;-73
2021/12/14 05:50:55;;;;;;;50.80;27.75;;;8.20;99.90;;;;;;4947463;28;20046;-73
2021/12/14 05:53:39;;;;;;;55.58;28.08;;;8.40;99.90;;;;;;4936181;29;20107;-73
2021/12/14 05:56:14;;;;;;;52.08;27.33;;;8.10;99.90;;;;;;4934912;29;20062;-73
2021/12/14 05:58:40;;;;;;;54.17;27.73;;;;;;;;;;4937756;29;20075;-73
2021/12/14 06:01:10;;;;;;;49.13;26.40;;;7.90;99.90;;;;;;4942367;28;20075;-73
2021/12/14 06:03:48;;;;;;;50.33;27.25;;;8.20;99.90;;;;;;4951744;28;20039;-73
2021/12/14 06:06:22;;;;;;;54.95;27.38;;;8.10;99.90;;;;;;4934823;29;20147;-73
2021/12/14 06:08:49;;;;;;;55.22;29.15;;;;;;;;;;4922594;28;20043;-73
2021/12/14 06:11:20;;;;;;;59.75;28.42;;;7.80;99.90;;;;;;4937200;28;20043;-73
2021/12/14 06:13:46;;;;;;;53.80;29.17;;;8.50;99.90;;;;;;4954104;28;20399;-73
2021/12/14 06:16:28;;;;;;;56.90;29.42;;;7.90;99.90;;;;;;4954993;28;20127;-73
2021/12/14 06:19:12;;;;;;;58.83;29.37;;;8.10;99.90;;;;;;4952995;28;20051;-73
2021/12/14 06:21:38;;;;;;;53.72;28.73;;;;;;;;;;4952321;28;20463;-73
2021/12/14 06:24:06;;;;;;;57.30;28.67;;;8.90;99.90;;;;;;4953872;28;20102;-73
2021/12/14 06:26:48;;;;;;;54.40;28.83;;;7.70;99.90;;;;;;4941453;29;20377;-73
2021/12/14 06:29:21;;;;;;;54.63;28.20;;;8.00;99.90;;;;;;4955857;28;20046;-73
2021/12/14 06:31:49;;;;;;;58.15;29.73;;;8.30;99.90;;;;;;4942020;29;20054;-73
2021/12/14 06:34:25;;;;;;;54.72;29.83;;;8.10;99.90;;;;;;4938391;29;20082;-73
2021/12/14 06:37:29;;;;;;;56.75;30.75;;;8.30;99.90;;;;;;4938329;29;20047;-73
2021/12/14 06:40:42;;;;;;;60.35;29.45;;;7.60;99.90;;;;;;4939082;28;20044;-73
2021/12/14 06:43:20;;;;;;;60.13;29.77;;;7.90;99.90;;;;;;4849564;29;20540;-73
2021/12/14 06:45:55;;;;;;;57.10;29.70;;;8.00;99.90;;;;;;4953505;28;20111;-73
2021/12/14 06:48:31;;;;;;;61.08;29.15;;;8.10;99.90;;;;;;4947332;28;20043;-73
2021/12/14 06:51:16;;;;;;;57.17;28.85;;;8.10;99.90;;;;;;4957495;28;20040;-73
2021/12/14 06:53:45;;;;;;;61.72;31.77;;;8.40;99.90;;;;;;4953134;28;20532;-73
2021/12/14 06:56:12;;;;;;;57.50;28.67;;;;;;;;;;4941635;29;20054;-73
2021/12/14 06:58:59;;;;;;;58.03;29.23;;;8.10;99.90;;;;;;4953951;28;20049;-73
2021/12/14 07:01:32;;;;;;;62.92;30.63;;;8.10;99.90;;;;;;4937660;29;20076;-73
2021/12/14 07:04:02;;;;;;;62.47;30.40;;;8.10;99.90;;;;;;4953881;28;20050;-73
2021/12/14 07:06:35;;;;;;;66.85;30.30;;;7.10;99.90;;;;;;4953759;28;20392;-73
2021/12/14 07:09:17;;;;;;;;;;;8.30;99.90;;;;;;4942978;29;20039;-73
2021/12/14 07:11:47;;;;;;;60.33;29.63;;;8.10;99.90;;;;;;4954911;28;20025;-73
2021/12/14 07:14:29;;;;;;;72.68;29.85;;;8.60;99.90;;;;;;4950962;28;20051;-72
2021/12/14 07:16:58;;;;;;;68.20;30.65;;;8.20;99.90;;;;;;4937480;29;20081;-72
2021/12/14 07:19:47;;;;;;;68.75;30.33;;;8.20;99.90;;;;;;4949171;28;20152;-73
2021/12/14 07:22:22;;;;;;;64.32;30.52;;;7.40;99.90;;;;;;4947485;28;20062;-72
2021/12/14 07:25:20;;;;;;;67.97;31.50;;;8.10;99.90;;;;;;4944183;29;20077;-72
2021/12/14 07:27:48;;;;;;;71.43;30.83;;;8.20;99.90;;;;;;4940795;28;20054;-72
2021/12/14 07:30:36;;;;;;;65.82;30.48;;;8.10;99.90;;;;;;4952975;28;20071;-72
2021/12/14 07:33:33;;;;;;;64.10;29.50;;;8.20;99.90;;;;;;4952420;28;20043;-72
2021/12/14 07:36:03;;;;;;;65.78;31.45;;;7.30;99.90;;;;;;4943029;28;20074;-71
2021/12/14 07:38:43;;;;;;;67.40;30.00;;;7.40;99.90;;;;;;4949707;28;20114;-72
2021/12/14 07:41:28;;;;;;;68.35;31.23;;;8.20;99.90;;;;;;4953424;29;20079;-72
2021/12/14 07:44:19;;;;;;;66.28;29.42;;;8.30;99.90;;;;;;4940258;29;20326;-72
2021/12/14 07:46:45;;;;;;;71.45;32.40;;;;;;;;;;4937207;29;20578;-72
2021/12/14 07:49:25;;;;;;;74.05;32.33;;;8.10;99.90;;;;;;4944065;28;20035;-72
2021/12/14 07:51:54;;;;;;;67.20;31.70;;;7.50;99.90;;;;;;4954136;28;20039;-72
2021/12/14 07:54:34;;;;;;;65.90;31.05;;;8.80;99.90;;;;;;4952598;28;20046;-72
2021/12/14 07:57:12;;;;;;;66.82;31.50;;;8.10;99.90;;;;;;4952622;28;20039;-72
2021/12/14 07:59:40;;;;;;;70.95;31.75;;;7.30;99.90;;;;;;4953882;28;20548;-72
2021/12/14 08:02:24;;;;;;;74.38;31.80;;;8.30;99.90;;;;;;4954226;28;20043;-72
2021/12/14 08:05:15;;;;;;;74.45;31.27;;;8.30;99.90;;;;;;4952196;28;20047;-72
2021/12/14 08:07:48;;;;;;;67.57;29.38;;;8.70;99.90;;;;;;4940405;29;20070;-76
2021/12/14 08:10:18;;;;;;;64.68;29.50;;;8.10;99.90;;;;;;4953895;28;20061;-72
2021/12/14 08:12:52;;;;;;;68.13;30.20;;;7.30;99.90;;;;;;4938433;29;20081;-71
2021/12/14 08:15:18;;;;;;;76.40;31.13;;;;;;;;;;4950595;28;20116;-71
2021/12/14 08:17:46;;;;;;;65.63;30.13;;;8.10;99.90;;;;;;4937831;29;20118;-71
2021/12/14 08:20:21;;;;;;;65.75;28.50;;;8.20;99.90;;;;;;4936252;29;20039;-71
2021/12/14 08:22:47;;;;;;;71.10;30.35;;;;;;;;;;4935410;29;20036;-71
2021/12/14 08:25:19;;;;;;;77.93;30.48;;;8.10;99.90;;;;;;4939224;29;20040;-71
2021/12/14 08:27:45;;;;;;;66.63;28.20;;;8.90;99.90;;;;;;4936305;29;20043;-71
2021/12/14 08:30:14;;;;;;;68.75;29.63;;;8.30;99.90;;;;;;4938701;29;20086;-71
2021/12/14 08:32:41;;;;;;;75.07;29.63;;;;;;;;;;4952244;28;20115;-71
2021/12/14 08:35:11;;;;;;;74.88;31.55;;;8.80;99.90;;;;;;4950874;28;20484;-71
2021/12/14 08:37:38;;;;;;;73.00;30.92;;;7.40;99.90;;;;;;4951368;28;20044;-71
2021/12/14 08:40:19;;;;;;;67.75;29.13;;;8.40;99.90;;;;;;4947699;28;20039;-71
2021/12/14 08:43:01;;;;;;;68.43;29.42;;;9.20;99.90;;;;;;4945931;28;20066;-71
2021/12/14 08:45:30;;;;;;;76.03;29.92;;;8.20;99.90;;;;;;4949947;28;20039;-71
2021/12/14 08:48:02;;;;;;;72.97;28.90;;;8.20;99.90;;;;;;4950469;28;20403;-71
2021/12/14 08:50:31;;;;;;;65.25;28.70;;;8.30;99.90;;;;;;4954300;28;20054;-71
2021/12/14 08:52:57;;;;;;;63.90;29.45;;;7.80;99.90;;;;;;4952002;28;20484;-71
2021/12/14 08:55:28;;;;;;;69.40;28.42;;;9.30;99.90;;;;;;4935841;29;20127;-71
2021/12/14 08:57:54;;;;;;;64.00;28.40;;;;;;;;;;4936951;28;20555;-71
2021/12/14 09:00:25;;;;;;;73.38;30.20;;;8.60;99.90;;;;;;4935483;29;20519;-71
2021/12/14 09:02:53;;;;;;;83.65;30.80;;;;;;;;;;4949047;28;20043;-71
2021/12/14 09:05:26;;;;;;;70.47;28.65;;;9.10;99.90;;;;;;4952942;28;20480;-71
2021/12/14 09:07:51;;;;;;;71.88;28.63;;;7.60;99.90;;;;;;4952898;28;20050;-71
2021/12/14 09:10:22;;;;;;;70.15;29.20;;;8.40;99.90;;;;;;4954592;28;20047;-71
2021/12/14 09:12:50;;;;;;;70.30;28.50;;;8.50;99.90;;;;;;4942131;28;20058;-71
2021/12/14 09:15:16;;;;;;;72.63;29.42;;;;;;;;;;4938909;28;20051;-71
2021/12/14 09:17:42;;;;;;;75.97;29.48;;;;;;;;;;4954655;28;20078;-71
2021/12/14 09:20:10;;;;;;;76.78;29.63;;;;;;;;;;4952754;28;20094;-71
2021/12/14 09:22:41;;;;;;;69.47;28.45;;;8.50;99.90;;;;;;4943497;29;20035;-71
2021/12/14 09:25:18;;;;;;;70.18;29.42;;;7.60;99.90;;;;;;4935229;29;20076;-71
2021/12/14 09:27:44;;;;;;;65.68;26.48;;;;;;;;;;4940755;28;20039;-71
2021/12/14 09:30:12;;;;;;;64.85;27.73;;;;;;;;;;4952868;29;20391;-71
2021/12/14 09:32:38;;;;;;;62.50;28.70;;;;;;;;;;4954282;28;20054;-71
2021/12/14 09:35:08;;;;;;;62.72;26.80;;;7.90;99.90;;;;;;4954457;28;20058;-71
2021/12/14 09:37:35;;;;;;;67.25;28.38;;;;;;;;;;4954215;28;20066;-72
2021/12/14 09:40:05;;;;;;;62.67;27.67;;;;;;;;;;4952822;28;20043;-72
2021/12/14 09:42:33;;;;;;;62.65;27.60;;;8.50;99.90;;;;;;4943886;28;20059;-71
2021/12/14 09:45:06;;;;;;;60.33;27.25;;;9.30;99.90;;;;;;4919017;29;20484;-71
2021/12/14 09:47:32;;;;;;;57.42;26.88;;;8.60;99.90;;;;;;4934848;29;20044;-71
2021/12/14 09:50:01;;;;;;;68.65;27.13;;;;;;;;;;4935906;29;20052;-71
2021/12/14 09:52:29;;;;;;;68.30;29.60;;;;;;;;;;4945463;29;20047;-71
2021/12/14 09:54:56;;;;;;;59.33;26.42;;;8.50;99.90;;;;;;4948922;28;20085;-71
2021/12/14 09:57:30;;;;;;;64.47;26.80;;;9.10;99.90;;;;;;4924818;29;20039;-70
2021/12/14 09:59:59;;;;;;;62.75;25.65;;;8.50;99.90;;;;;;4934271;29;20038;-71
2021/12/14 10:02:34;;;;;;;60.72;26.27;;;8.70;99.90;;;;;;4952088;28;20093;-71
2021/12/14 10:05:17;;;;;;;70.47;27.65;;;8.60;99.90;;;;;;4954266;28;20036;-72
2021/12/14 10:07:43;;;;;;;57.95;26.05;;;9.10;99.90;;;;;;4948995;28;20043;-72
2021/12/14 10:10:14;;;;;;;62.83;27.05;;;8.40;99.90;;;;;;4935070;29;20040;-72
2021/12/14 10:12:49;;;;;;;64.20;26.75;;;8.50;99.90;;;;;;4934511;29;20035;-72
2021/12/14 10:15:31;;;;;;;63.17;26.05;;;8.40;99.90;;;;;;4945728;29;20134;-72
2021/12/14 10:18:02;;;;;;;63.15;26.73;;;8.60;99.90;;;;;;4935572;29;20043;-72
2021/12/14 10:20:35;;;;;;;67.32;29.20;;;8.10;99.90;;;;;;4934683;29;20035;-72
2021/12/14 10:23:02;;;;;;;58.83;25.90;;;;;;;;;;4939745;28;20039;-72
2021/12/14 10:25:28;;;;;;;59.90;26.60;;;8.50;99.90;;;;;;4938546;29;20038;-72
2021/12/14 10:27:55;;;;;;;53.55;24.35;;;8.50;99.90;;;;;;4950694;29;20098;-72
2021/12/14 10:30:36;;;;;;;52.35;24.65;;;;;;;;;;4950370;29;20043;-72
2021/12/14 10:33:03;;;;;;;54.70;25.17;;;8.60;99.90;;;;;;4950934;29;20082;-72
2021/12/14 10:35:38;;;;;;;54.53;24.63;;;8.50;99.90;;;;;;4936458;28;20404;-72
2021/12/14 10:38:19;;;;;;;52.13;24.13;;;8.70;99.90;;;;;;4951632;28;20043;-70
2021/12/14 10:43:32;;;;;;;49.45;21.48;;;;;;;;;;4936545;29;20067;-70
2021/12/14 10:46:14;;;;;;;48.70;22.88;;;8.60;99.90;;;;;;4950965;28;20074;-70
2021/12/14 10:48:43;;;;;;;47.20;21.42;;;;;;;;;;4937420;29;20035;-71
2021/12/14 10:51:12;;;;;;;44.65;21.83;;;8.90;99.90;;;;;;4940234;29;20078;-71
2021/12/14 10:53:42;;;;;;;45.42;19.70;;;8.60;99.90;;;;;;4949861;28;20133;-70
2021/12/14 10:56:12;;;;;;;39.75;19.92;;;;;;;;;;4920649;29;20051;-70
2021/12/14 10:58:39;;;;;;;43.22;19.63;;;8.80;99.90;;;;;;4946995;28;20229;-71
2021/12/14 11:01:07;;;;;;;42.83;19.70;;;;;;;;;;4933951;29;20054;-70
2021/12/14 11:03:36;;;;;;;39.88;20.35;;;8.70;99.90;;;;;;4935146;29;20035;-70
2021/12/14 11:06:09;;;;;;;44.30;19.70;;;8.70;99.90;;;;;;4935121;29;20036;-70
2021/12/14 11:09:01;;;;;;;37.92;17.92;;;8.80;99.90;;;;;;4941639;28;20091;-70
2021/12/14 11:11:30;;;;;;;38.63;18.45;;;;;;;;;;4952778;28;20514;-70
2021/12/14 11:14:01;;;;;;;38.58;19.25;;;;;;;;;;4936834;29;20444;-70
2021/12/14 11:19:38;;;;;;;36.75;16.65;;;8.90;99.90;;;;;;4937274;29;20054;-70
2021/12/14 11:22:20;;;;;;;35.33;16.52;;;8.80;99.90;;;;;;4942219;29;20036;-70
2021/12/14 11:24:54;;;;;;;35.08;16.60;;;8.90;99.90;;;;;;4944891;28;20122;-70
2021/12/14 11:27:22;;;;;;;36.75;17.15;;;;;;;;;;4930027;29;20050;-70
2021/12/14 11:30:15;;;;;;;34.60;16.13;;;8.80;99.90;;;;;;4966801;28;20054;-71
2021/12/14 11:32:43;;;;;;;28.42;14.93;;;9.40;99.90;;;;;;4943591;29;20049;-70
2021/12/14 11:35:24;;;;;;;30.60;14.70;;;9.00;99.90;;;;;;4944373;29;20146;-71
2021/12/14 11:37:50;;;;;;;29.08;15.40;;;9.80;99.90;;;;;;4940761;29;20043;-71
2021/12/14 11:40:19;;;;;;;30.80;15.13;;;;;;;;;;4924722;29;20690;-70
2021/12/14 11:42:45;;;;;;;30.92;14.43;;;;;;;;;;4942492;29;20070;-71
2021/12/14 11:45:18;;;;;;;29.38;14.45;;;9.00;99.90;;;;;;4945283;28;20055;-70
2021/12/14 11:47:58;;;;;;;28.83;13.93;;;9.00;99.90;;;;;;4944449;28;20380;-70
2021/12/14 11:50:24;;;;;;;32.13;14.70;;;;;;;;;;4946548;28;20043;-70
2021/12/14 11:52:57;;;;;;;29.38;13.98;;;8.60;99.90;;;;;;4947336;29;20076;-70
2021/12/14 11:55:47;;;;;;;28.30;13.43;;;9.30;99.90;;;;;;4951280;28;20098;-70
2021/12/14 11:58:24;;;;;;;27.77;13.65;;;8.50;99.90;;;;;;4938912;28;20166;-70
2021/12/14 12:01:14;;;;;;;24.45;12.50;;;8.90;99.90;;;;;;4940976;28;20485;-70
2021/12/14 12:03:40;;;;;;;25.23;12.27;;;;;;;;;;4952185;28;20042;-70
2021/12/14 12:06:09;;;;;;;26.13;12.82;;;;;;;;;;4947564;29;20201;-70
2021/12/14 12:11:23;;;;;;;22.67;10.23;;;8.40;99.90;;;;;;4941968;28;20050;-70
2021/12/14 12:13:49;;;;;;;28.55;12.07;;;;;;;;;;4935296;29;20058;-69
2021/12/14 12:16:19;;;;;;;27.80;11.65;;;9.10;99.90;;;;;;4943597;28;20043;-70
2021/12/14 12:19:06;;;;;;;38.83;11.85;;;9.10;99.90;;;;;;4944361;29;20506;-70
2021/12/14 12:21:36;;;;;;;22.15;10.02;;;8.90;99.90;;;;;;4939243;29;20067;-70
2021/12/14 12:24:02;;;;;;;29.58;12.00;;;;;;;;;;4936177;29;20571;-70
2021/12/14 12:26:30;;;;;;;25.33;11.05;;;10.00;99.90;;;;;;4940134;29;20031;-70
2021/12/14 12:29:02;;;;;;;24.83;11.23;;;9.10;99.90;;;;;;4942899;28;20055;-70
2021/12/14 12:31:32;;;;;;;26.73;10.65;;;;;;;;;;4945659;29;20121;-70
2021/12/14 12:33:59;;;;;;;25.45;10.80;;;9.30;99.90;;;;;;4933105;29;20035;-68
2021/12/14 12:36:38;;;;;;;33.03;11.50;;;10.10;99.90;;;;;;4952088;28;20051;-68
2021/12/14 12:39:12;;;;;;;37.80;12.40;;;9.70;99.90;;;;;;4952185;28;20105;-69
2021/12/14 12:41:46;;;;;;;37.42;12.23;;;9.80;99.90;;;;;;4953204;28;20114;-68
2021/12/14 12:44:12;;;;;;;35.60;12.38;;;;;;;;;;4947088;28;20086;-69
2021/12/14 12:46:45;;;;;;;34.50;12.18;;;;;;;;;;4951817;28;20079;-68
2021/12/14 12:49:18;;;;;;;34.08;12.27;;;9.30;99.90;;;;;;4963137;28;20040;-69
2021/12/14 12:51:44;;;;;;;33.13;12.30;;;;;;;;;;4953286;29;20047;-70
2021/12/14 12:54:12;;;;;;;32.00;11.88;;;9.20;99.90;;;;;;4954774;28;20431;-69
2021/12/14 12:56:41;;;;;;;32.63;12.93;;;9.50;99.90;;;;;;4953549;28;20042;-70
2021/12/14 12:59:08;;;;;;;32.53;13.43;;;;;;;;;;4954349;29;20085;-68
2021/12/14 13:01:34;;;;;;;34.50;13.27;;;;;;;;;;4954783;28;20380;-69
2021/12/14 13:04:01;;;;;;;39.78;14.00;;;;;;;;;;4954598;28;20043;-69
2021/12/14 13:06:27;;;;;;;37.65;13.50;;;;;;;;;;4936272;29;20042;-69
2021/12/14 13:08:58;;;;;;;32.22;12.90;;;9.30;99.90;;;;;;4919042;29;20051;-69
2021/12/14 13:11:37;;;;;;;37.92;13.10;;;8.70;99.90;;;;;;4935264;29;20086;-69
2021/12/14 13:14:12;;;;;;;35.60;12.02;;;8.50;99.90;;;;;;4942517;28;20086;-69
2021/12/14 13:16:51;;;;;;;37.83;12.77;;;9.20;99.90;;;;;;4939992;29;20047;-69
2021/12/14 13:19:23;;;;;;;44.33;13.23;;;9.30;99.90;;;;;;4935581;29;20043;-69
2021/12/14 13:21:53;;;;;;;33.90;12.15;;;8.80;99.90;;;;;;4935629;29;20392;-69
2021/12/14 13:24:19;;;;;;;39.55;11.75;;;;;;;;;;4940714;29;20044;-69
2021/12/14 13:27:06;;;;;;;33.33;12.13;;;9.70;99.90;;;;;;4965395;28;20411;-72
2021/12/14 13:29:38;;;;;;;47.72;12.27;;;;;;;;;;4967323;28;20488;-70
2021/12/14 13:32:08;;;;;;;33.72;12.48;;;10.40;99.90;;;;;;4935269;29;20126;-70
2021/12/14 13:34:42;;;;;;;37.65;11.77;;;9.90;99.90;;;;;;4944748;28;20074;-70
2021/12/14 13:37:11;;;;;;;35.95;11.63;;;9.40;99.90;;;;;;4944475;29;20040;-71
2021/12/14 13:39:39;;;;;;;32.83;10.40;;;9.40;99.90;;;;;;4935221;29;20126;-70
2021/12/14 13:42:05;;;;;;;34.45;10.38;;;8.70;99.90;;;;;;4934842;29;20048;-70
2021/12/14 13:44:38;;;;;;;28.38;9.73;;;9.70;99.90;;;;;;4934939;29;20044;-70
2021/12/14 13:47:05;;;;;;;;;;;9.50;99.90;;;;;;4936299;29;20044;-70
2021/12/14 13:49:32;;;;;;;29.90;10.05;;;10.30;99.90;;;;;;4934943;29;20013;-70
2021/12/14 13:51:58;;;;;;;24.27;10.05;;;;;;;;;;4934629;29;20047;-70
2021/12/14 13:54:25;;;;;;;19.88;9.13;;;9.40;99.90;;;;;;4937761;29;20047;-70
2021/12/14 13:56:52;;;;;;;20.95;9.10;;;9.90;99.90;;;;;;4930295;29;20059;-70
2021/12/14 13:59:18;;;;;;;22.92;9.20;;;8.90;99.90;;;;;;4945793;28;20484;-69
2021/12/14 14:01:53;;;;;;;20.50;8.13;;;9.60;99.90;;;;;;4952877;28;20063;-69